createdAt,value
2018-05-17T00:01:08.876Z,101524.05
2018-05-17T00:03:36.297Z,101523.75
2018-05-17T00:06:03.703Z,101526.70
2018-05-17T00:08:31.117Z,101526.16
2018-05-17T00:10:58.524Z,101526.35
2018-05-17T00:13:25.941Z,101525.99
2018-05-17T00:15:53.351Z,101519.60
2018-05-17T00:18:20.778Z,101520.53
2018-05-17T00:20:48.205Z,101529.86
2018-05-17T00:23:15.621Z,101533.76
2018-05-17T00:25:43.049Z,101535.83
2018-05-17T00:28:10.476Z,101530.82
2018-05-17T00:30:37.891Z,101531.58
2018-05-17T00:33:05.307Z,101528.58
2018-05-17T00:35:32.716Z,101530.22
2018-05-17T00:38:00.141Z,101531.11
2018-05-17T00:40:27.553Z,101536.70
2018-05-17T00:42:54.973Z,101536.65
2018-05-17T00:45:22.380Z,101536.57
2018-05-17T00:47:49.802Z,101532.75
2018-05-17T00:50:17.208Z,101528.59
2018-05-17T00:52:44.633Z,101535.52
2018-05-17T00:55:12.040Z,101529.53
2018-05-17T00:57:39.465Z,101527.22
2018-05-17T01:00:06.888Z,101526.36
2018-05-17T01:02:34.331Z,101530.05
2018-05-17T01:05:01.741Z,101521.77
2018-05-17T01:07:29.153Z,101530.00
2018-05-17T01:09:56.577Z,101527.53
2018-05-17T01:12:24.017Z,101526.02
2018-05-17T01:14:51.435Z,101525.85
2018-05-17T01:17:18.837Z,101522.66
2018-05-17T01:19:46.256Z,101529.20
2018-05-17T01:22:13.703Z,101533.39
2018-05-17T01:24:41.117Z,101528.19
2018-05-17T01:27:08.529Z,101530.77
2018-05-17T01:29:35.953Z,101531.92
2018-05-17T01:32:03.368Z,101536.49
2018-05-17T01:34:30.789Z,101536.91
2018-05-17T01:37:10.102Z,101537.67
2018-05-17T01:39:37.512Z,101533.01
2018-05-17T01:42:04.966Z,101538.83
2018-05-17T01:44:32.349Z,101535.67
2018-05-17T01:46:59.762Z,101541.86
2018-05-17T01:49:27.182Z,101540.63
2018-05-17T01:51:54.606Z,101533.33
2018-05-17T01:54:22.040Z,101537.44
2018-05-17T01:56:49.454Z,101542.37
2018-05-17T01:59:16.867Z,101532.98
2018-05-17T02:01:44.279Z,101540.97
2018-05-17T02:04:11.696Z,101539.86
2018-05-17T02:06:39.108Z,101532.47
2018-05-17T02:09:06.528Z,101538.05
2018-05-17T02:11:33.941Z,101531.33
2018-05-17T02:14:01.366Z,101543.33
2018-05-17T02:16:28.804Z,101533.20
2018-05-17T02:18:56.200Z,101546.11
2018-05-17T02:21:23.628Z,101544.50
2018-05-17T02:23:51.038Z,101544.56
2018-05-17T02:26:18.485Z,101535.81
2018-05-17T02:28:45.901Z,101534.34
2018-05-17T02:31:13.328Z,101531.91
2018-05-17T02:33:40.753Z,101524.00
2018-05-17T02:36:08.166Z,101528.42
2018-05-17T02:38:35.576Z,101531.78
2018-05-17T02:41:02.998Z,101531.63
2018-05-17T02:43:30.408Z,101529.45
2018-05-17T02:45:57.828Z,101533.33
2018-05-17T02:48:25.271Z,101531.81
2018-05-17T02:50:52.718Z,101530.43
2018-05-17T02:53:20.121Z,101526.61
2018-05-17T02:55:47.565Z,101526.98
2018-05-17T02:58:14.992Z,101530.01
2018-05-17T03:00:42.406Z,101529.58
2018-05-17T03:03:09.812Z,101528.02
2018-05-17T03:05:37.246Z,101523.95
2018-05-17T03:08:04.653Z,101521.61
2018-05-17T03:10:32.075Z,101528.19
2018-05-17T03:12:59.488Z,101531.16
2018-05-17T03:15:26.908Z,101522.56
2018-05-17T03:17:54.332Z,101526.32
2018-05-17T03:20:21.748Z,101529.38
2018-05-17T03:22:49.176Z,101529.86
2018-05-17T03:25:16.611Z,101524.67
2018-05-17T03:27:44.020Z,101531.20
2018-05-17T03:30:11.453Z,101519.36
2018-05-17T03:32:38.862Z,101525.00
2018-05-17T03:35:06.294Z,101524.19
2018-05-17T03:37:33.712Z,101520.30
2018-05-17T03:40:01.133Z,101523.70
2018-05-17T03:42:28.549Z,101520.43
2018-05-17T03:44:55.972Z,101518.69
2018-05-17T03:47:23.384Z,101519.61
2018-05-17T03:49:50.802Z,101522.53
2018-05-17T03:52:18.221Z,101515.57
2018-05-17T03:54:45.652Z,101519.62
2018-05-17T03:57:13.065Z,101517.98
2018-05-17T03:59:40.476Z,101515.55
2018-05-17T04:02:19.789Z,101516.39
2018-05-17T04:04:58.937Z,101517.12
2018-05-17T04:07:26.345Z,101513.02
2018-05-17T04:09:53.772Z,101516.25
2018-05-17T04:12:21.193Z,101514.33
2018-05-17T04:14:48.648Z,101521.35
2018-05-17T04:17:16.067Z,101517.14
2018-05-17T04:19:43.496Z,101514.50
2018-05-17T04:22:10.913Z,101520.02
2018-05-17T04:24:38.328Z,101519.47
2018-05-17T04:27:05.759Z,101520.58
2018-05-17T04:29:33.172Z,101518.65
2018-05-17T04:32:00.600Z,101521.77
2018-05-17T04:34:28.009Z,101523.86
2018-05-17T04:36:55.425Z,101519.09
2018-05-17T04:39:22.838Z,101520.56
2018-05-17T04:41:50.254Z,101524.83
2018-05-17T04:44:17.667Z,101525.90
2018-05-17T04:46:45.089Z,101526.81
2018-05-17T04:49:12.530Z,101515.65
2018-05-17T04:51:39.953Z,101516.09
2018-05-17T04:54:07.380Z,101523.38
2018-05-17T04:56:34.796Z,101518.17
2018-05-17T04:59:02.218Z,101516.63
2018-05-17T05:01:29.641Z,101519.30
2018-05-17T05:03:57.052Z,101520.05
2018-05-17T05:06:24.482Z,101524.95
2018-05-17T05:08:51.892Z,101527.95
2018-05-17T05:11:19.308Z,101527.53
2018-05-17T05:13:46.723Z,101524.00
2018-05-17T05:16:14.168Z,101522.67
2018-05-17T05:18:41.580Z,101524.31
2018-05-17T05:21:09.004Z,101527.92
2018-05-17T05:23:36.409Z,101519.16
2018-05-17T05:26:03.823Z,101518.78
2018-05-17T05:28:31.252Z,101526.17
2018-05-17T05:30:58.667Z,101522.69
2018-05-17T05:33:26.085Z,101525.92
2018-05-17T05:35:53.497Z,101535.28
2018-05-17T05:38:20.914Z,101526.99
2018-05-17T05:40:48.341Z,101528.23
2018-05-17T05:43:15.757Z,101533.62
2018-05-17T05:45:43.181Z,101541.18
2018-05-17T05:48:10.592Z,101539.34
2018-05-17T05:50:38.012Z,101547.03
2018-05-17T05:53:05.426Z,101540.77
2018-05-17T05:55:32.861Z,101539.38
2018-05-17T05:58:00.278Z,101539.45
2018-05-17T06:00:27.700Z,101548.45
2018-05-17T06:02:55.123Z,101535.26
2018-05-17T06:05:22.536Z,101545.28
2018-05-17T06:07:49.953Z,101539.91
2018-05-17T06:10:17.376Z,101549.33
2018-05-17T06:12:44.837Z,101540.53
2018-05-17T06:15:12.252Z,101548.42
2018-05-17T06:17:39.671Z,101547.01
2018-05-17T06:20:07.093Z,101541.67
2018-05-17T06:22:34.508Z,101535.32
2018-05-17T06:25:01.925Z,101546.95
2018-05-17T06:27:29.354Z,101548.02
2018-05-17T06:29:56.759Z,101546.73
2018-05-17T06:32:24.176Z,101547.92
2018-05-17T06:34:51.596Z,101541.63
2018-05-17T06:37:19.028Z,101547.22
2018-05-17T06:39:46.433Z,101550.34
2018-05-17T06:44:47.576Z,101548.70
2018-05-17T06:47:15.001Z,101552.20
2018-05-17T06:49:42.432Z,101554.33
2018-05-17T06:52:09.859Z,101561.48
2018-05-17T06:54:37.271Z,101565.34
2018-05-17T06:57:04.700Z,101561.02
2018-05-17T06:59:32.109Z,101557.66
2018-05-17T07:01:59.524Z,101554.98
2018-05-17T07:04:26.941Z,101558.17
2018-05-17T07:06:54.357Z,101547.03
2018-05-17T07:09:21.782Z,101553.59
2018-05-17T07:11:49.201Z,101559.91
2018-05-17T07:14:16.620Z,101554.97
2018-05-17T07:16:44.041Z,101558.92
2018-05-17T07:19:11.456Z,101557.11
2018-05-17T07:21:38.884Z,101564.51
2018-05-17T07:24:06.346Z,101575.91
2018-05-17T07:26:33.729Z,101574.32
2018-05-17T07:29:01.140Z,101577.28
2018-05-17T07:31:28.683Z,101571.64
2018-05-17T07:33:56.001Z,101574.91
2018-05-17T07:36:23.449Z,101568.54
2018-05-17T07:38:50.852Z,101568.59
2018-05-17T07:41:18.261Z,101577.69
2018-05-17T07:43:45.673Z,101568.66
2018-05-17T07:46:13.092Z,101568.49
2018-05-17T07:48:40.504Z,101571.20
2018-05-17T07:51:07.914Z,101574.12
2018-05-17T07:53:35.341Z,101571.69
2018-05-17T07:56:02.753Z,101575.05
2018-05-17T07:58:30.172Z,101578.09
2018-05-17T08:00:57.589Z,101585.16
2018-05-17T08:03:25.004Z,101577.11
2018-05-17T08:05:52.432Z,101579.50
2018-05-17T08:08:19.896Z,101586.88
2018-05-17T08:10:47.308Z,101584.97
2018-05-17T08:13:15.069Z,101582.34
2018-05-17T08:15:42.475Z,101583.00
2018-05-17T08:18:09.889Z,101586.14
2018-05-17T08:20:37.301Z,101587.91
2018-05-17T08:23:04.726Z,101596.58
2018-05-17T08:25:32.130Z,101592.97
2018-05-17T08:27:59.549Z,101597.86
2018-05-17T08:30:26.961Z,101594.36
2018-05-17T08:32:54.442Z,101596.98
2018-05-17T08:35:21.793Z,101600.95
2018-05-17T08:37:49.206Z,101606.53
2018-05-17T08:40:16.624Z,101596.68
2018-05-17T08:42:44.169Z,101599.36
2018-05-17T08:45:11.509Z,101600.64
2018-05-17T08:47:38.930Z,101607.31
2018-05-17T08:50:06.341Z,101611.23
2018-05-17T08:52:33.844Z,101608.50
2018-05-17T08:55:01.193Z,101608.94
2018-05-17T08:57:28.637Z,101612.87
2018-05-17T08:59:56.044Z,101605.43
2018-05-17T09:02:23.468Z,101611.14
2018-05-17T09:04:50.880Z,101621.80
2018-05-17T09:07:18.301Z,101626.09
2018-05-17T09:09:45.722Z,101619.18
2018-05-17T09:12:13.149Z,101624.53
2018-05-17T09:14:40.565Z,101617.19
2018-05-17T09:17:07.976Z,101621.86
2018-05-17T09:19:35.400Z,101627.13
2018-05-17T09:22:02.806Z,101629.41
2018-05-17T09:24:30.264Z,101630.08
2018-05-17T09:26:57.668Z,101629.50
2018-05-17T09:29:25.116Z,101630.27
2018-05-17T09:31:52.536Z,101631.71
2018-05-17T09:34:19.950Z,101632.45
2018-05-17T09:36:47.369Z,101632.45
2018-05-17T09:39:14.792Z,101646.13
2018-05-17T09:41:42.197Z,101647.05
2018-05-17T09:44:09.616Z,101651.46
2018-05-17T09:46:37.021Z,101650.78
2018-05-17T09:49:04.449Z,101648.16
2018-05-17T09:51:31.864Z,101655.36
2018-05-17T09:53:59.291Z,101650.66
2018-05-17T09:56:26.709Z,101642.31
2018-05-17T09:58:54.124Z,101653.45
2018-05-17T10:01:21.539Z,101661.21
2018-05-17T10:03:48.958Z,101655.38
2018-05-17T10:06:16.368Z,101654.78
2018-05-17T10:08:43.809Z,101654.08
2018-05-17T10:11:11.252Z,101651.30
2018-05-17T10:13:38.660Z,101654.85
2018-05-17T10:16:06.081Z,101644.34
2018-05-17T10:18:33.505Z,101643.70
2018-05-17T10:21:00.920Z,101647.81
2018-05-17T10:23:28.349Z,101643.83
2018-05-17T10:25:55.769Z,101645.64
2018-05-17T10:28:23.186Z,101650.20
2018-05-17T10:30:50.605Z,101649.03
2018-05-17T10:33:18.076Z,101658.06
2018-05-17T10:35:45.484Z,101651.03
2018-05-17T10:38:12.917Z,101645.42
2018-05-17T10:40:40.340Z,101644.41
2018-05-17T10:43:07.768Z,101638.80
2018-05-17T10:45:35.205Z,101637.90
2018-05-17T10:48:02.651Z,101643.37
2018-05-17T10:50:30.051Z,101639.20
2018-05-17T10:52:57.478Z,101649.27
2018-05-17T10:55:24.884Z,101650.45
2018-05-17T10:57:52.296Z,101647.25
2018-05-17T11:00:19.732Z,101647.20
2018-05-17T11:02:47.184Z,101648.19
2018-05-17T11:05:14.637Z,101644.97
2018-05-17T11:07:42.042Z,101648.44
2018-05-17T11:10:09.461Z,101650.11
2018-05-17T11:12:36.879Z,101648.03
2018-05-17T11:15:04.296Z,101647.52
2018-05-17T11:17:31.711Z,101651.52
2018-05-17T11:19:59.142Z,101648.58
2018-05-17T11:22:26.548Z,101648.78
2018-05-17T11:24:53.970Z,101649.27
2018-05-17T11:27:21.372Z,101648.88
2018-05-17T11:29:48.792Z,101644.78
2018-05-17T11:32:16.212Z,101648.31
2018-05-17T11:34:43.633Z,101654.28
2018-05-17T11:37:11.061Z,101651.57
2018-05-17T11:39:38.484Z,101653.42
2018-05-17T11:42:05.901Z,101649.33
2018-05-17T11:44:33.324Z,101639.27
2018-05-17T11:47:00.744Z,101649.33
2018-05-17T11:49:28.176Z,101650.19
2018-05-17T11:51:55.593Z,101646.75
2018-05-17T11:54:23.005Z,101651.68
2018-05-17T11:56:50.437Z,101645.03
2018-05-17T11:59:17.855Z,101648.28
2018-05-17T12:01:45.268Z,101642.36
2018-05-17T12:04:12.700Z,101646.56
2018-05-17T12:06:40.112Z,101646.69
2018-05-17T12:09:07.563Z,101647.33
2018-05-17T12:11:34.960Z,101652.22
2018-05-17T12:14:02.376Z,101654.36
2018-05-17T12:16:29.795Z,101643.31
2018-05-17T12:18:57.239Z,101644.65
2018-05-17T12:21:24.638Z,101642.05
2018-05-17T12:23:52.061Z,101645.66
2018-05-17T12:26:19.484Z,101648.22
2018-05-17T12:28:46.891Z,101642.66
2018-05-17T12:31:14.320Z,101642.33
2018-05-17T12:33:41.738Z,101647.45
2018-05-17T12:36:09.165Z,101648.85
2018-05-17T12:38:36.583Z,101645.02
2018-05-17T12:41:04.003Z,101651.29
2018-05-17T12:43:31.424Z,101650.94
2018-05-17T12:45:58.908Z,101646.93
2018-05-17T12:48:26.253Z,101650.79
2018-05-17T12:50:53.685Z,101651.31
2018-05-17T12:53:21.093Z,101655.70
2018-05-17T12:55:48.512Z,101658.95
2018-05-17T12:58:15.921Z,101653.50
2018-05-17T13:00:43.333Z,101663.84
2018-05-17T13:03:10.757Z,101666.34
2018-05-17T13:05:38.169Z,101658.41
2018-05-17T13:08:05.585Z,101654.42
2018-05-17T13:10:33.017Z,101652.81
2018-05-17T13:13:00.525Z,101646.59
2018-05-17T13:15:27.861Z,101649.34
2018-05-17T13:17:55.280Z,101648.41
2018-05-17T13:20:22.721Z,101648.75
2018-05-17T13:22:50.137Z,101646.72
2018-05-17T13:25:17.559Z,101643.32
2018-05-17T13:27:44.974Z,101645.98
2018-05-17T13:30:12.399Z,101651.17
2018-05-17T13:32:39.801Z,101646.70
2018-05-17T13:35:07.228Z,101642.22
2018-05-17T13:37:34.648Z,101641.23
2018-05-17T13:40:02.060Z,101637.00
2018-05-17T13:42:29.464Z,101638.63
2018-05-17T13:44:56.891Z,101636.70
2018-05-17T13:47:24.308Z,101644.69
2018-05-17T13:49:51.731Z,101637.78
2018-05-17T13:52:19.151Z,101636.70
2018-05-17T13:54:46.576Z,101630.72
2018-05-17T13:57:13.980Z,101634.94
2018-05-17T13:59:41.395Z,101633.13
2018-05-17T14:02:08.813Z,101630.69
2018-05-17T14:04:36.224Z,101644.66
2018-05-17T14:07:03.648Z,101632.58
2018-05-17T14:09:31.060Z,101630.73
2018-05-17T14:11:58.489Z,101632.19
2018-05-17T14:14:25.901Z,101634.52
2018-05-17T14:16:53.323Z,101634.17
2018-05-17T14:19:20.747Z,101637.83
2018-05-17T14:21:48.169Z,101634.42
2018-05-17T14:24:15.577Z,101642.98
2018-05-17T14:26:43.001Z,101643.39
2018-05-17T14:29:10.409Z,101651.23
2018-05-17T14:31:37.865Z,101648.39
2018-05-17T14:34:05.249Z,101648.09
2018-05-17T14:36:32.668Z,101649.89
2018-05-17T14:39:00.089Z,101654.89
2018-05-17T14:41:27.508Z,101655.62
2018-05-17T14:43:54.916Z,101652.98
2018-05-17T14:46:22.332Z,101650.00
2018-05-17T14:48:49.740Z,101657.16
2018-05-17T14:51:17.166Z,101653.66
2018-05-17T14:53:44.589Z,101652.05
2018-05-17T14:56:12.004Z,101650.98
2018-05-17T14:58:39.448Z,101644.02
2018-05-17T15:01:06.878Z,101647.27
2018-05-17T15:03:34.280Z,101640.60
2018-05-17T15:06:01.704Z,101643.80
2018-05-17T15:08:29.241Z,101639.50
2018-05-17T15:10:56.549Z,101649.36
2018-05-17T15:13:23.959Z,101641.62
2018-05-17T15:15:51.392Z,101643.11
2018-05-17T15:18:18.813Z,101646.36
2018-05-17T15:20:46.226Z,101647.02
2018-05-17T15:23:13.641Z,101648.17
2018-05-17T15:25:41.058Z,101640.92
2018-05-17T15:28:08.474Z,101646.36
2018-05-17T15:30:35.883Z,101641.28
2018-05-17T15:33:03.408Z,101644.07
2018-05-17T15:35:30.815Z,101647.65
2018-05-17T15:37:58.314Z,101643.52
2018-05-17T15:40:25.726Z,101651.30
2018-05-17T15:42:53.144Z,101648.42
2018-05-17T15:45:20.577Z,101645.38
2018-05-17T15:47:48.140Z,101643.75
2018-05-17T15:50:15.595Z,101647.44
2018-05-17T15:52:43.017Z,101641.52
2018-05-17T15:55:10.424Z,101642.53
2018-05-17T15:57:37.845Z,101647.10
2018-05-17T16:00:05.258Z,101645.84
2018-05-17T16:02:32.701Z,101647.65
2018-05-17T16:05:00.108Z,101648.14
2018-05-17T16:07:27.536Z,101644.26
2018-05-17T16:09:54.972Z,101641.69
2018-05-17T16:12:22.384Z,101646.52
2018-05-17T16:14:49.819Z,101640.16
2018-05-17T16:17:17.220Z,101641.55
2018-05-17T16:19:44.632Z,101645.92
2018-05-17T16:22:12.044Z,101655.05
2018-05-17T16:24:39.460Z,101644.71
2018-05-17T16:27:06.880Z,101648.66
2018-05-17T16:29:34.292Z,101645.66
2018-05-17T16:32:01.707Z,101646.89
2018-05-17T16:34:29.112Z,101645.77
2018-05-17T16:36:56.537Z,101659.55
2018-05-17T16:39:23.945Z,101649.11
2018-05-17T16:41:51.364Z,101651.61
2018-05-17T16:44:18.783Z,101644.13
2018-05-17T16:46:46.200Z,101643.05
2018-05-17T16:49:13.612Z,101640.67
2018-05-17T16:51:41.041Z,101642.41
2018-05-17T16:54:08.510Z,101643.65
2018-05-17T16:56:35.860Z,101644.34
2018-05-17T16:59:03.280Z,101644.36
2018-05-17T17:01:30.691Z,101640.41
2018-05-17T17:03:58.112Z,101647.37
2018-05-17T17:06:25.516Z,101634.83
2018-05-17T17:08:52.949Z,101643.98
2018-05-17T17:11:20.362Z,101646.55
2018-05-17T17:13:47.803Z,101648.33
2018-05-17T17:16:15.361Z,101642.38
2018-05-17T17:18:42.913Z,101638.46
2018-05-17T17:21:10.355Z,101644.03
2018-05-17T17:23:37.800Z,101635.08
2018-05-17T17:26:05.202Z,101636.27
2018-05-17T17:28:33.717Z,101635.74
2018-05-17T17:31:01.427Z,101630.27
2018-05-17T17:33:28.847Z,101628.48
2018-05-17T17:35:56.313Z,101632.11
2018-05-17T17:38:23.834Z,101629.33
2018-05-17T17:40:51.240Z,101627.31
2018-05-17T17:43:18.828Z,101620.58
2018-05-17T17:45:46.228Z,101626.33
2018-05-17T17:48:13.656Z,101631.07
2018-05-17T17:50:41.068Z,101621.69
2018-05-17T17:53:08.675Z,101622.28
2018-05-17T17:55:36.089Z,101629.68
2018-05-17T17:58:03.506Z,101621.80
2018-05-17T18:00:30.924Z,101629.73
2018-05-17T18:02:58.348Z,101633.42
2018-05-17T18:05:25.764Z,101633.33
2018-05-17T18:07:53.175Z,101627.93
2018-05-17T18:10:20.587Z,101639.86
2018-05-17T18:12:47.999Z,101643.14
2018-05-17T18:15:15.416Z,101647.56
2018-05-17T18:17:43.649Z,101643.80
2018-05-17T18:20:11.066Z,101646.27
2018-05-17T18:22:38.497Z,101644.94
2018-05-17T18:25:05.909Z,101648.89
2018-05-17T18:27:33.328Z,101647.66
2018-05-17T18:30:00.740Z,101649.73
2018-05-17T18:32:28.169Z,101650.80
2018-05-17T18:34:55.571Z,101649.55
2018-05-17T18:37:22.986Z,101655.06
2018-05-17T18:39:50.431Z,101655.19
2018-05-17T18:42:17.844Z,101666.09
2018-05-17T18:44:45.326Z,101664.63
2018-05-17T18:47:12.683Z,101668.89
2018-05-17T18:49:40.107Z,101668.44
2018-05-17T18:52:07.540Z,101669.46
2018-05-17T18:54:35.008Z,101673.84
2018-05-17T18:57:02.433Z,101670.10
2018-05-17T18:59:29.802Z,101679.66
2018-05-17T19:01:57.333Z,101678.96
2018-05-17T19:04:24.642Z,101683.68
2018-05-17T19:06:52.059Z,101682.27
2018-05-17T19:09:19.553Z,101687.67
2018-05-17T19:11:46.964Z,101687.09
2018-05-17T19:14:14.441Z,101685.70
2018-05-17T19:16:41.880Z,101691.75
2018-05-17T19:19:09.312Z,101689.86
2018-05-17T19:21:38.777Z,101681.92
2018-05-17T19:24:06.360Z,101682.41
2018-05-17T19:26:33.801Z,101683.64
2018-05-17T19:29:01.650Z,101683.81
2018-05-17T19:31:29.243Z,101688.46
2018-05-17T19:33:56.585Z,101695.89
2018-05-17T19:36:25.144Z,101698.03
2018-05-17T19:38:52.576Z,101698.58
2018-05-17T19:41:19.996Z,101704.76
2018-05-17T19:43:47.403Z,101707.22
2018-05-17T19:46:14.813Z,101705.65
2018-05-17T19:48:42.277Z,101709.83
2018-05-17T19:51:09.659Z,101702.81
2018-05-17T19:53:37.076Z,101702.87
2018-05-17T19:56:04.498Z,101699.45
2018-05-17T19:58:31.916Z,101696.45
2018-05-17T20:00:59.328Z,101699.56
2018-05-17T20:03:26.752Z,101703.02
2018-05-17T20:05:54.160Z,101704.44
2018-05-17T20:08:21.595Z,101698.89
2018-05-17T20:10:49.017Z,101702.19
2018-05-17T20:13:16.425Z,101698.27
2018-05-17T20:15:43.847Z,101698.27
2018-05-17T20:18:11.259Z,101699.16
2018-05-17T20:20:38.680Z,101700.06
2018-05-17T20:23:06.096Z,101706.29
2018-05-17T20:25:33.527Z,101708.57
2018-05-17T20:28:00.940Z,101702.77
2018-05-17T20:30:28.385Z,101711.80
2018-05-17T20:32:55.792Z,101706.17
2018-05-17T20:35:23.209Z,101698.48
2018-05-17T20:37:50.628Z,101703.24
2018-05-17T20:40:18.054Z,101695.91
2018-05-17T20:42:45.464Z,101696.14
2018-05-17T20:45:12.887Z,101693.92
2018-05-17T20:47:40.300Z,101692.05
2018-05-17T20:50:07.727Z,101696.66
2018-05-17T20:52:35.135Z,101695.04
2018-05-17T20:55:02.556Z,101700.98
2018-05-17T20:57:29.971Z,101696.59
2018-05-17T20:59:57.399Z,101695.46
2018-05-17T21:02:24.817Z,101692.73
2018-05-17T21:04:52.243Z,101698.05
2018-05-17T21:07:19.660Z,101694.42
2018-05-17T21:09:47.077Z,101690.33
2018-05-17T21:12:14.492Z,101690.53
2018-05-17T21:14:41.912Z,101686.31
2018-05-17T21:17:09.363Z,101691.22
2018-05-17T21:19:36.779Z,101689.73
2018-05-17T21:22:04.187Z,101693.86
2018-05-17T21:24:31.605Z,101687.35
2018-05-17T21:26:59.025Z,101692.98
2018-05-17T21:29:26.448Z,101699.91
2018-05-17T21:31:53.869Z,101694.61
2018-05-17T21:34:21.284Z,101690.16
2018-05-17T21:36:48.708Z,101694.96
2018-05-17T21:39:16.125Z,101689.71
2018-05-17T21:41:43.548Z,101693.41
2018-05-17T21:44:10.993Z,101696.56
2018-05-17T21:46:38.419Z,101697.06
2018-05-17T21:49:05.833Z,101700.10
2018-05-17T21:51:33.251Z,101697.42
2018-05-17T21:54:00.664Z,101697.11
2018-05-17T21:56:28.089Z,101698.12
2018-05-17T21:58:55.497Z,101692.84
2018-05-17T22:01:22.918Z,101690.85
2018-05-17T22:03:50.331Z,101696.70
2018-05-17T22:06:17.745Z,101697.87
2018-05-17T22:08:45.149Z,101699.92
2018-05-17T22:11:12.565Z,101695.03
2018-05-17T22:13:39.976Z,101688.54
2018-05-17T22:16:07.400Z,101689.58
2018-05-17T22:18:34.819Z,101688.06
2018-05-17T22:21:02.253Z,101691.41
2018-05-17T22:23:29.660Z,101690.00
2018-05-17T22:25:57.076Z,101685.70
2018-05-17T22:28:24.490Z,101685.73
2018-05-17T22:30:51.909Z,101689.94
2018-05-17T22:33:19.344Z,101693.04
2018-05-17T22:35:46.859Z,101697.50
2018-05-17T22:38:14.211Z,101699.33
2018-05-17T22:40:41.624Z,101696.83
2018-05-17T22:43:09.033Z,101696.16
2018-05-17T22:45:36.451Z,101695.59
2018-05-17T22:48:03.864Z,101690.66
2018-05-17T22:50:31.282Z,101688.95
2018-05-17T22:52:58.732Z,101690.31
2018-05-17T22:55:26.153Z,101677.04
2018-05-17T22:58:05.415Z,101673.50
2018-05-17T23:00:32.836Z,101684.22
2018-05-17T23:03:00.266Z,101679.34
2018-05-17T23:05:27.677Z,101679.76
2018-05-17T23:07:55.087Z,101684.34
2018-05-17T23:10:22.508Z,101687.06
2018-05-17T23:12:49.920Z,101688.14
2018-05-17T23:15:17.340Z,101688.73
2018-05-17T23:17:44.749Z,101682.53
2018-05-17T23:20:12.174Z,101685.73
2018-05-17T23:22:39.580Z,101679.53
2018-05-17T23:25:08.901Z,101679.22
2018-05-17T23:27:36.313Z,101687.91
2018-05-17T23:30:03.748Z,101687.63
2018-05-17T23:32:31.172Z,101687.56
2018-05-17T23:34:58.589Z,101682.41
2018-05-17T23:37:26.008Z,101681.45
2018-05-17T23:39:53.421Z,101683.38
2018-05-17T23:42:20.831Z,101678.75
2018-05-17T23:44:48.235Z,101672.87
2018-05-17T23:47:15.662Z,101678.63
2018-05-17T23:49:43.070Z,101674.06
2018-05-17T23:52:10.525Z,101675.77
2018-05-17T23:54:37.922Z,101675.06
2018-05-17T23:57:05.347Z,101671.85
2018-05-17T23:59:32.759Z,101670.83
